SAOU/LUQ METAR and TAF weather

Enter ICAO airport designator
Station Type Date Time Source
SAOU METAR 2019/10/15 08:40 UTC NOAA

SAOU 150840Z 32006KT 2000 -DZBR OVC005 06/06 Q1025 REFG RMK ESTIMATED WIND


Station Type Date Time Source
SAOU Decoded METAR 2019/10/15 08:40 UTC NOAA

San Luis Aerodrome, Argentina (SAOU) 33-16S 066-21W 713M
Oct 15, 2019 - 04:40 AM EDT / 2019.10.15 0840 UTC
Wind: from the NW (320 degrees) at 7 MPH (6 KT):0
Visibility: 1 mile(s):0
Sky conditions: overcast
Weather: light drizzle, mist
Temperature: 42 F (6 C)
Dew Point: 42 F (6 C)
Relative Humidity: 100%
Pressure (altimeter): 30.27 in. Hg (1025 hPa)
ob: SAOU 150840Z 32006KT 2000 -DZBR OVC005 06/06 Q1025 REFG RMK ESTIMATED WIND
cycle: 8

Station Type Date Time Source
SAOU TAF 2019/08/18 18:03 UTC NOAA

TAF SAOU 181700Z 1818/1918 14005KT 9999 FEW030 SCT060 TX16/1819Z TN03/1910Z
BECMG 1902/1905 11010KT 9999 BKN030 SCT070

Example: see airport list